Time;durP1;ratioP1;P1;durP2;ratioP2;P2;SDS_P1;SDS_P2;PMS_P1;PMS_P2;Temp;Humidity;BMP_temperature;BMP_pressure;BME280_temperature;BME280_humidity;BME280_pressure;Samples;Min_cycle;Max_cycle;Signal;HPM_P1;HPM_P2
2023/10/30 00:02:05;;;;;;;0.15;0.10;;;;;;;0.33;83.80;99674.44;6155876;23;20425;-69
2023/10/30 00:04:33;;;;;;;0.10;0.10;;;;;;;0.25;83.67;99670.09;6171360;23;20017;-68
2023/10/30 00:06:59;;;;;;;0.10;0.10;;;;;;;0.19;83.61;99680.88;6183930;23;20153;-68
2023/10/30 00:09:25;;;;;;;0.10;0.10;;;;;;;0.17;83.60;99689.13;6180599;23;20488;-68
2023/10/30 00:11:51;;;;;;;0.10;0.10;;;;;;;0.16;83.87;99681.25;6184085;23;20044;-68
2023/10/30 00:14:17;;;;;;;0.10;0.10;;;;;;;0.13;84.39;99679.84;6174156;23;20028;-68
2023/10/30 00:16:45;;;;;;;0.10;0.10;;;;;;;0.16;84.01;99681.25;6174430;23;20490;-69
2023/10/30 00:19:11;;;;;;;0.00;0.00;;;;;;;0.17;83.93;99685.63;6180317;23;20052;-69
2023/10/30 00:21:38;;;;;;;0.10;0.10;;;;;;;0.17;83.98;99686.44;6179096;23;20021;-68
2023/10/30 00:24:04;;;;;;;0.10;0.10;;;;;;;0.14;83.97;99684.19;6172293;23;20021;-68
2023/10/30 00:26:31;;;;;;;0.10;0.10;;;;;;;0.11;84.12;99684.59;6172878;23;20487;-68
2023/10/30 00:28:57;;;;;;;0.10;0.10;;;;;;;0.12;84.31;99688.94;6155529;23;20021;-68
2023/10/30 00:31:24;;;;;;;0.10;0.10;;;;;;;0.12;84.34;99679.00;6181096;23;20426;-68
2023/10/30 00:33:53;;;;;;;0.03;0.03;;;;;;;0.19;84.56;99673.63;6171871;23;20104;-68
2023/10/30 00:36:19;;;;;;;0.10;0.10;;;;;;;0.20;84.47;99671.75;6173789;23;20041;-68
2023/10/30 00:38:45;;;;;;;0.05;0.05;;;;;;;0.28;84.96;99668.84;6171868;23;20025;-69
2023/10/30 00:41:11;;;;;;;0.10;0.10;;;;;;;0.31;84.71;99668.41;6146612;23;20049;-68
2023/10/30 00:43:38;;;;;;;0.10;0.10;;;;;;;0.33;84.78;99657.44;6148210;23;20021;-68
2023/10/30 00:46:06;;;;;;;0.10;0.10;;;;;;;0.40;84.69;99656.41;6182309;23;20032;-69
2023/10/30 00:48:33;;;;;;;0.10;0.10;;;;;;;0.40;84.62;99669.84;6144982;23;20025;-73
2023/10/30 00:51:01;;;;;;;0.10;0.10;;;;;;;0.39;84.22;99678.13;6171183;23;20044;-73
2023/10/30 00:53:27;;;;;;;0.00;0.00;;;;;;;0.42;84.37;99683.09;6145345;23;20025;-74
2023/10/30 00:55:55;;;;;;;0.10;0.10;;;;;;;0.45;84.44;99682.66;6170989;23;20024;-69
2023/10/30 00:58:21;;;;;;;;;;;;;;;0.47;83.49;99674.38;6147956;23;20025;-73
2023/10/30 01:00:47;;;;;;;0.10;0.10;;;;;;;0.40;83.76;99664.47;6146922;23;20190;-73
2023/10/30 01:03:15;;;;;;;0.10;0.10;;;;;;;0.35;83.69;99648.13;6153018;23;20108;-73
2023/10/30 01:05:41;;;;;;;0.10;0.10;;;;;;;0.36;83.77;99668.63;6168700;23;20464;-72
2023/10/30 01:08:08;;;;;;;0.10;0.10;;;;;;;0.34;83.76;99664.47;6147140;23;20049;-72
2023/10/30 01:10:35;;;;;;;0.10;0.10;;;;;;;0.29;83.71;99667.78;6095496;23;20276;-73
2023/10/30 01:13:02;;;;;;;;;;;;;;;0.31;83.92;99660.34;6155742;23;20021;-73
2023/10/30 01:15:29;;;;;;;0.10;0.10;;;;;;;0.36;83.47;99668.63;6182128;23;19971;-73
2023/10/30 01:17:55;;;;;;;0.10;0.10;;;;;;;0.39;82.62;99661.97;6145435;23;20468;-73
2023/10/30 01:20:21;;;;;;;0.00;0.00;;;;;;;0.42;82.50;99656.19;6155052;23;20260;-74
2023/10/30 01:22:47;;;;;;;0.10;0.10;;;;;;;0.47;82.25;99658.22;6174743;23;20066;-68
2023/10/30 01:25:15;;;;;;;0.10;0.10;;;;;;;0.52;81.84;99655.75;6185625;23;20040;-69
2023/10/30 01:27:41;;;;;;;;;;;;;;;0.50;81.90;99655.13;6158470;23;20051;-68
2023/10/30 01:30:08;;;;;;;0.10;0.10;;;;;;;0.50;81.81;99639.00;6183597;23;19920;-69
2023/10/30 01:32:34;;;;;;;0.10;0.10;;;;;;;0.45;81.46;99628.88;6146013;23;20258;-67
2023/10/30 01:35:00;;;;;;;0.00;0.00;;;;;;;0.41;80.80;99619.56;6143361;23;20063;-68
2023/10/30 01:37:26;;;;;;;0.00;0.00;;;;;;;0.38;81.66;99631.56;6167010;23;20036;-67
2023/10/30 01:39:54;;;;;;;0.00;0.00;;;;;;;0.38;82.11;99628.88;6171792;23;20025;-68
2023/10/30 01:42:22;;;;;;;0.10;0.10;;;;;;;0.36;81.89;99605.91;6143353;23;20107;-68
2023/10/30 01:44:55;;;;;;;0.00;0.00;;;;;;;0.36;82.66;99619.38;6122412;23;20020;-68
2023/10/30 01:47:22;;;;;;;0.10;0.10;;;;;;;0.40;82.25;99626.81;6156840;23;20024;-67
2023/10/30 01:49:49;;;;;;;0.10;0.10;;;;;;;0.41;82.03;99641.91;6179660;23;20108;-68
2023/10/30 01:52:16;;;;;;;0.10;0.10;;;;;;;0.35;81.67;99650.00;6181249;23;20530;-68
2023/10/30 01:54:46;;;;;;;0.00;0.00;;;;;;;0.27;81.67;99664.50;6177265;23;20458;-67
2023/10/30 01:57:12;;;;;;;0.10;0.10;;;;;;;0.25;82.33;99671.94;6150862;23;20048;-68
2023/10/30 01:59:41;;;;;;;;;;;;;;;0.23;82.14;99676.72;6155734;23;20075;-68
2023/10/30 02:02:10;;;;;;;0.00;0.00;;;;;;;0.14;81.77;99655.41;6144201;23;19947;-67
2023/10/30 02:04:36;;;;;;;0.10;0.10;;;;;;;0.18;81.98;99671.97;6180558;23;20017;-68
2023/10/30 02:07:05;;;;;;;0.00;0.00;;;;;;;0.22;82.17;99650.84;6178234;23;20247;-68
2023/10/30 02:09:32;;;;;;;0.10;0.10;;;;;;;0.18;82.37;99636.19;6179957;23;20096;-68
2023/10/30 02:11:59;;;;;;;0.10;0.10;;;;;;;0.17;82.87;99640.72;6146232;23;20032;-68
2023/10/30 02:14:25;;;;;;;0.10;0.10;;;;;;;0.16;82.47;99617.56;6182693;23;20091;-67
2023/10/30 02:16:53;;;;;;;0.10;0.10;;;;;;;0.20;83.13;99591.09;6179645;23;20036;-68
2023/10/30 02:19:23;;;;;;;0.00;0.00;;;;;;;0.23;83.92;99591.47;6151867;23;20029;-68
2023/10/30 02:21:51;;;;;;;0.10;0.10;;;;;;;0.20;83.22;99588.41;6132233;23;20048;-68
2023/10/30 02:24:18;;;;;;;0.00;0.00;;;;;;;0.16;82.35;99605.97;6130766;23;20502;-68
2023/10/30 02:26:46;;;;;;;0.10;0.10;;;;;;;0.11;81.81;99604.75;6153478;23;20021;-68
2023/10/30 02:29:12;;;;;;;0.10;0.10;;;;;;;0.11;81.64;99642.38;6167184;23;20024;-68
2023/10/30 02:31:38;;;;;;;0.00;0.00;;;;;;;0.06;82.07;99670.94;6181125;23;20040;-68
2023/10/30 02:34:04;;;;;;;0.10;0.10;;;;;;;0.06;82.58;99652.94;6179719;23;20024;-68
2023/10/30 02:36:31;;;;;;;0.00;0.00;;;;;;;0.13;82.61;99626.06;6180770;23;20017;-68
2023/10/30 02:38:57;;;;;;;0.10;0.10;;;;;;;0.15;82.89;99615.91;6165761;23;20025;-68
2023/10/30 02:41:29;;;;;;;0.10;0.10;;;;;;;0.17;83.55;99638.03;6151768;23;20025;-68
2023/10/30 02:43:57;;;;;;;0.00;0.00;;;;;;;0.18;83.68;99634.31;6172835;23;20025;-68
2023/10/30 02:46:23;;;;;;;0.10;0.10;;;;;;;0.18;82.95;99636.19;6174885;23;20165;-67
2023/10/30 02:48:50;;;;;;;0.10;0.10;;;;;;;0.17;83.50;99634.53;6176106;23;20025;-68
2023/10/30 02:51:16;;;;;;;0.10;0.10;;;;;;;0.15;83.55;99640.13;6122011;23;20025;-68
2023/10/30 02:53:43;;;;;;;0.10;0.10;;;;;;;0.16;83.18;99652.53;6151106;23;20025;-69
2023/10/30 02:56:09;;;;;;;0.10;0.10;;;;;;;0.17;83.21;99656.88;6173360;23;20349;-68
2023/10/30 02:58:35;;;;;;;0.10;0.10;;;;;;;0.13;83.44;99648.38;6175607;23;20024;-68
2023/10/30 03:01:03;;;;;;;0.10;0.10;;;;;;;0.16;83.50;99643.63;6174671;23;20021;-68
2023/10/30 03:03:30;;;;;;;0.10;0.10;;;;;;;0.15;83.59;99645.50;6173211;23;20032;-68
2023/10/30 03:05:58;;;;;;;0.10;0.10;;;;;;;0.11;83.99;99647.75;6155975;23;20024;-68
2023/10/30 03:08:27;;;;;;;0.10;0.10;;;;;;;0.15;84.02;99650.88;6156868;23;20027;-68
2023/10/30 03:10:54;;;;;;;0.08;0.08;;;;;;;0.20;83.63;99653.75;6120593;23;20017;-68
2023/10/30 03:13:21;;;;;;;0.10;0.10;;;;;;;0.18;82.87;99649.63;6157078;23;20028;-68
2023/10/30 03:15:49;;;;;;;0.10;0.10;;;;;;;0.15;82.76;99634.72;6156453;23;20343;-68
2023/10/30 03:18:18;;;;;;;0.10;0.10;;;;;;;0.11;82.86;99638.88;6156046;23;20056;-68
2023/10/30 03:20:44;;;;;;;0.10;0.10;;;;;;;0.07;82.64;99646.53;6121878;23;20389;-68
2023/10/30 03:23:11;;;;;;;0.10;0.10;;;;;;;0.06;82.64;99635.97;6148055;23;20021;-69
2023/10/30 03:25:38;;;;;;;0.08;0.08;;;;;;;0.06;82.53;99641.34;6172111;23;20144;-68
2023/10/30 03:28:04;;;;;;;0.10;0.10;;;;;;;0.08;82.28;99658.94;6122970;23;20375;-68
2023/10/30 03:30:33;;;;;;;0.10;0.10;;;;;;;0.11;81.80;99668.47;6171780;23;20028;-69
2023/10/30 03:32:59;;;;;;;0.10;0.10;;;;;;;0.16;81.41;99675.88;6156150;23;20024;-69
2023/10/30 03:35:27;;;;;;;0.10;0.10;;;;;;;0.12;81.27;99684.38;6183543;23;20021;-68
2023/10/30 03:37:55;;;;;;;0.10;0.10;;;;;;;0.15;81.37;99683.13;6148577;23;20028;-68
2023/10/30 03:40:21;;;;;;;0.10;0.10;;;;;;;0.21;81.97;99694.94;6170196;23;20021;-68
2023/10/30 03:42:48;;;;;;;0.10;0.10;;;;;;;0.26;81.50;99719.31;6182536;23;20021;-68
2023/10/30 03:45:14;;;;;;;0.10;0.10;;;;;;;0.26;81.67;99724.69;6147506;23;20479;-68
2023/10/30 03:47:42;;;;;;;0.03;0.03;;;;;;;0.24;81.31;99722.25;6145799;23;20036;-68
2023/10/30 03:50:09;;;;;;;0.00;0.00;;;;;;;0.23;81.58;99725.13;6123957;23;20017;-72
2023/10/30 03:52:38;;;;;;;0.10;0.10;;;;;;;0.20;81.52;99712.91;6174134;23;20032;-72
2023/10/30 03:55:05;;;;;;;0.10;0.10;;;;;;;0.20;81.76;99720.97;6174722;23;20480;-73
2023/10/30 03:57:32;;;;;;;0.10;0.10;;;;;;;0.20;81.39;99699.47;6148635;23;20203;-73
2023/10/30 03:59:58;;;;;;;0.10;0.10;;;;;;;0.18;81.35;99698.84;6173021;23;20434;-72
2023/10/30 04:02:24;;;;;;;0.10;0.10;;;;;;;0.12;81.91;99705.88;6184296;23;20296;-72
2023/10/30 04:04:50;;;;;;;0.00;0.00;;;;;;;0.12;81.16;99695.13;6155287;23;20027;-72
2023/10/30 04:07:16;;;;;;;0.10;0.10;;;;;;;0.09;81.00;99682.09;6144412;23;20025;-73
2023/10/30 04:09:44;;;;;;;0.10;0.10;;;;;;;0.06;81.18;99668.25;6170526;23;20021;-73
2023/10/30 04:12:10;;;;;;;0.00;0.00;;;;;;;0.01;81.54;99641.16;6145672;23;20063;-72
2023/10/30 04:14:38;;;;;;;0.10;0.10;;;;;;;0.02;81.17;99621.31;6145629;23;20072;-72
2023/10/30 04:17:04;;;;;;;0.10;0.10;;;;;;;0.04;82.03;99606.63;6120474;23;20017;-72
2023/10/30 04:19:31;;;;;;;0.10;0.10;;;;;;;0.06;82.62;99599.19;6146435;23;20048;-72
2023/10/30 04:21:57;;;;;;;0.10;0.10;;;;;;;0.06;83.28;99599.19;6171834;23;20039;-73
2023/10/30 04:24:23;;;;;;;0.10;0.10;;;;;;;0.11;83.92;99593.19;6144706;23;20021;-73
2023/10/30 04:26:51;;;;;;;0.10;0.10;;;;;;;0.09;83.89;99593.38;6171925;23;20052;-72
2023/10/30 04:29:17;;;;;;;;;;;;;;;0.05;84.55;99591.31;6173361;23;20025;-68
2023/10/30 04:31:43;;;;;;;0.10;0.10;;;;;;;0.08;84.66;99586.34;6119923;23;19966;-68
2023/10/30 04:34:09;;;;;;;0.00;0.00;;;;;;;0.16;84.95;99592.53;6168230;23;20040;-68
2023/10/30 04:36:35;;;;;;;0.00;0.00;;;;;;;0.15;85.35;99578.25;6176973;23;20120;-73
2023/10/30 04:39:01;;;;;;;0.10;0.10;;;;;;;0.03;85.21;99563.81;6145130;23;20075;-73
2023/10/30 04:41:30;;;;;;;0.10;0.10;;;;;;;-0.04;86.10;99569.22;6173691;23;20455;-72
2023/10/30 04:43:58;;;;;;;0.10;0.10;;;;;;;-0.08;86.75;99559.91;6182468;23;20025;-72
2023/10/30 04:46:24;;;;;;;0.00;0.00;;;;;;;-0.12;87.31;99556.81;6146083;23;20488;-73
2023/10/30 04:48:50;;;;;;;0.10;0.10;;;;;;;-0.20;87.78;99554.38;6171226;23;20055;-72
2023/10/30 04:51:17;;;;;;;0.10;0.10;;;;;;;-0.24;88.26;99556.66;6181372;23;20025;-68
2023/10/30 04:53:43;;;;;;;0.10;0.10;;;;;;;-0.31;87.90;99559.34;6169349;23;20028;-68
2023/10/30 04:56:10;;;;;;;0.10;0.10;;;;;;;-0.45;87.78;99563.06;6154028;23;20052;-68
2023/10/30 04:58:36;;;;;;;0.10;0.10;;;;;;;-0.48;88.13;99583.13;6171686;23;20031;-73
2023/10/30 05:01:09;;;;;;;0.10;0.10;;;;;;;-0.47;88.46;99598.22;6173250;23;20021;-73
2023/10/30 05:03:35;;;;;;;0.10;0.10;;;;;;;-0.46;88.56;99591.81;6182570;23;20079;-73
2023/10/30 05:06:01;;;;;;;0.10;0.10;;;;;;;-0.46;88.13;99599.88;6181493;23;20047;-72
2023/10/30 05:08:28;;;;;;;0.10;0.10;;;;;;;-0.55;87.97;99585.00;6158076;23;20024;-73
2023/10/30 05:10:54;;;;;;;0.10;0.10;;;;;;;-0.62;88.36;99576.13;6171343;23;20027;-73
2023/10/30 05:13:20;;;;;;;0.10;0.10;;;;;;;-0.67;89.29;99571.34;6183257;23;20066;-73
2023/10/30 05:15:46;;;;;;;0.10;0.10;;;;;;;-0.69;90.45;99577.97;6172477;23;20086;-73
2023/10/30 05:18:17;;;;;;;0.10;0.10;;;;;;;-0.72;91.07;99590.78;6181995;23;20060;-73
2023/10/30 05:20:43;;;;;;;0.00;0.00;;;;;;;-0.75;91.09;99585.81;6171848;23;20111;-73
2023/10/30 05:23:09;;;;;;;0.00;0.00;;;;;;;-0.77;91.95;99573.63;6181192;23;20025;-73
2023/10/30 05:25:36;;;;;;;0.10;0.10;;;;;;;-0.72;92.25;99568.44;6172695;23;20249;-73
2023/10/30 05:28:03;;;;;;;0.10;0.10;;;;;;;-0.72;92.47;99563.06;6182547;23;20017;-73
2023/10/30 05:30:30;;;;;;;;;;;;;;;-0.78;92.88;99550.50;6145623;23;20036;-73
2023/10/30 05:32:56;;;;;;;0.10;0.10;;;;;;;-0.78;93.19;99537.91;6154334;23;19927;-73
2023/10/30 05:35:23;;;;;;;0.10;0.10;;;;;;;-0.74;93.27;99539.13;6178767;23;20029;-68
2023/10/30 05:37:49;;;;;;;;;;;;;;;-0.69;93.60;99532.31;6117076;23;20021;-68
2023/10/30 05:40:16;;;;;;;0.00;0.00;;;;;;;-0.68;93.70;99518.69;6177940;23;19927;-68
2023/10/30 05:42:42;;;;;;;0.10;0.10;;;;;;;-0.68;93.70;99504.41;6142169;23;20027;-68
2023/10/30 05:45:09;;;;;;;0.10;0.10;;;;;;;-0.57;94.05;99518.03;6179325;23;20179;-68
2023/10/30 05:47:36;;;;;;;0.10;0.10;;;;;;;-0.51;93.28;99524.44;6174314;23;20196;-68
2023/10/30 05:50:03;;;;;;;0.10;0.10;;;;;;;-0.57;92.56;99503.78;6093184;23;20389;-68
2023/10/30 05:52:31;;;;;;;0.10;0.10;;;;;;;-0.62;92.48;99490.19;6143771;23;20113;-68
2023/10/30 05:54:57;;;;;;;0.10;0.10;;;;;;;-0.62;92.62;99479.44;6144938;23;20365;-68
2023/10/30 05:57:23;;;;;;;0.10;0.10;;;;;;;-0.58;92.43;99464.53;6154181;23;20120;-68
2023/10/30 05:59:50;;;;;;;0.10;0.10;;;;;;;-0.62;91.40;99471.38;6148628;23;20028;-68
2023/10/30 06:02:16;;;;;;;0.10;0.10;;;;;;;-0.62;91.49;99466.00;6154344;23;20021;-67
2023/10/30 06:04:42;;;;;;;0.00;0.00;;;;;;;-0.61;91.30;99463.09;6167351;23;20025;-67
2023/10/30 06:07:09;;;;;;;0.10;0.10;;;;;;;-0.58;91.07;99464.53;6172219;23;20032;-68
2023/10/30 06:09:37;;;;;;;0.10;0.10;;;;;;;-0.59;91.23;99454.84;6174320;23;20029;-68
2023/10/30 06:12:05;;;;;;;0.10;0.10;;;;;;;-0.46;91.10;99452.13;6143318;23;20104;-67
2023/10/30 06:14:31;;;;;;;0.10;0.10;;;;;;;-0.48;90.94;99451.47;6124846;23;20021;-72
2023/10/30 06:17:01;;;;;;;0.10;0.10;;;;;;;-0.64;91.05;99435.81;6181959;23;20017;-69
2023/10/30 06:19:28;;;;;;;0.10;0.10;;;;;;;-0.64;92.18;99452.78;6154889;23;20093;-67
2023/10/30 06:21:54;;;;;;;0.10;0.10;;;;;;;-0.61;92.63;99446.97;6170865;23;20025;-67
2023/10/30 06:24:21;;;;;;;0.00;0.00;;;;;;;-0.67;93.29;99436.25;6166669;23;20079;-68
2023/10/30 06:26:49;;;;;;;0.17;0.17;;;;;;;-0.73;93.40;99432.53;6119564;23;20200;-67
2023/10/30 06:29:16;;;;;;;0.10;0.10;;;;;;;-0.68;93.88;99424.69;6120534;23;20041;-67
2023/10/30 06:31:42;;;;;;;0.10;0.10;;;;;;;-0.66;94.34;99428.00;6145290;23;20029;-71
2023/10/30 06:34:08;;;;;;;0.10;0.10;;;;;;;-0.73;94.48;99403.84;6169609;23;20072;-72
2023/10/30 06:36:35;;;;;;;0.00;0.00;;;;;;;-0.70;93.98;99391.88;6171557;23;20017;-67
2023/10/30 06:39:01;;;;;;;0.00;0.00;;;;;;;-0.68;94.77;99387.09;6174197;23;20107;-72
2023/10/30 06:41:27;;;;;;;0.10;0.10;;;;;;;-0.67;94.89;99391.44;6182461;23;20040;-67
2023/10/30 06:43:55;;;;;;;0.00;0.00;;;;;;;-0.73;94.93;99379.66;6173391;23;20074;-72
2023/10/30 06:46:21;;;;;;;;;;;;;;;-0.66;95.39;99378.81;6147311;23;20021;-72
2023/10/30 06:48:47;;;;;;;0.10;0.10;;;;;;;-0.68;94.91;99371.00;6144007;23;20358;-72
2023/10/30 06:51:13;;;;;;;0.10;0.10;;;;;;;-0.77;94.79;99367.72;6170348;23;20458;-71
2023/10/30 06:53:39;;;;;;;0.10;0.10;;;;;;;-0.77;94.62;99373.06;6155508;23;20024;-72
2023/10/30 06:56:07;;;;;;;0.10;0.10;;;;;;;-0.83;94.42;99360.47;6145724;23;20048;-67
2023/10/30 06:58:34;;;;;;;0.10;0.10;;;;;;;-0.83;94.75;99349.75;6146379;23;20028;-71
2023/10/30 07:01:03;;;;;;;0.10;0.10;;;;;;;-0.79;94.97;99345.59;6118926;23;20025;-66
2023/10/30 07:03:29;;;;;;;0.10;0.10;;;;;;;-0.74;95.15;99355.69;6163858;23;20025;-66
2023/10/30 07:05:56;;;;;;;0.00;0.00;;;;;;;-0.77;94.75;99340.84;6169122;23;20105;-66
2023/10/30 07:08:22;;;;;;;0.10;0.10;;;;;;;-0.80;95.43;99343.94;6179209;23;20021;-67
2023/10/30 07:10:49;;;;;;;0.10;0.10;;;;;;;-0.77;95.74;99334.66;6119638;23;20032;-67
2023/10/30 07:13:15;;;;;;;0.10;0.10;;;;;;;-0.84;95.48;99329.31;6168093;23;20021;-67
2023/10/30 07:15:41;;;;;;;0.10;0.10;;;;;;;-0.81;96.10;99322.69;6157260;23;20045;-67
2023/10/30 07:18:09;;;;;;;0.10;0.10;;;;;;;-0.75;96.53;99325.34;6178972;23;20372;-67
2023/10/30 07:20:35;;;;;;;0.10;0.10;;;;;;;-0.79;96.58;99337.53;6169391;23;20021;-67
2023/10/30 07:23:01;;;;;;;0.10;0.10;;;;;;;-0.80;96.94;99318.97;6169714;23;20021;-67
2023/10/30 07:25:27;;;;;;;0.00;0.00;;;;;;;-0.84;97.26;99312.38;6181365;23;20025;-67
2023/10/30 07:27:54;;;;;;;0.00;0.00;;;;;;;-0.84;97.64;99302.44;6182361;23;20052;-67
2023/10/30 07:30:21;;;;;;;0.00;0.00;;;;;;;-0.86;97.68;99300.00;6146895;23;20503;-67
2023/10/30 07:32:48;;;;;;;0.10;0.10;;;;;;;-0.93;97.83;99295.69;6122847;23;20036;-67
2023/10/30 07:35:15;;;;;;;0.10;0.10;;;;;;;-0.87;98.64;99305.56;6181454;23;20021;-67
2023/10/30 07:37:42;;;;;;;0.10;0.10;;;;;;;-0.80;99.21;99297.50;6146762;23;20017;-67
2023/10/30 07:40:12;;;;;;;0.10;0.10;;;;;;;-0.87;99.19;99284.09;6122421;23;20027;-72
2023/10/30 07:42:39;;;;;;;0.10;0.10;;;;;;;-0.90;100.00;99287.22;6148043;23;20495;-73
2023/10/30 07:45:06;;;;;;;0.10;0.10;;;;;;;-0.83;100.00;99288.00;6146774;23;20056;-72
2023/10/30 07:47:32;;;;;;;0.10;0.10;;;;;;;-0.81;100.00;99299.34;6147412;23;20503;-72
2023/10/30 07:50:01;;;;;;;0.10;0.10;;;;;;;-0.88;100.00;99290.50;6170103;23;20360;-74
2023/10/30 07:52:30;;;;;;;0.00;0.00;;;;;;;-0.87;100.00;99289.47;6152434;23;20048;-74
2023/10/30 07:54:57;;;;;;;0.10;0.10;;;;;;;-0.83;100.00;99284.50;6144466;23;20057;-73
2023/10/30 07:57:23;;;;;;;0.10;0.10;;;;;;;-0.85;100.00;99284.69;6179792;23;20119;-73
2023/10/30 07:59:51;;;;;;;0.10;0.10;;;;;;;-0.87;100.00;99276.03;6094029;23;20368;-68
2023/10/30 08:02:17;;;;;;;;;;;;;;;-0.85;100.00;99279.34;6127735;23;20457;-67
2023/10/30 08:04:43;;;;;;;0.00;0.00;;;;;;;-0.91;100.00;99269.47;6171921;23;19920;-67
2023/10/30 08:07:10;;;;;;;0.00;0.00;;;;;;;-0.93;100.00;99261.59;6094034;23;20025;-68
2023/10/30 08:09:38;;;;;;;0.10;0.10;;;;;;;-0.94;100.00;99280.59;6118255;23;20033;-73
2023/10/30 08:12:05;;;;;;;;;;;;;;;-1.03;100.00;99280.84;6168686;23;20248;-68
2023/10/30 08:14:31;;;;;;;0.10;0.10;;;;;;;-1.04;100.00;99267.63;6150548;23;19920;-69
2023/10/30 08:17:00;;;;;;;0.10;0.10;;;;;;;-1.00;100.00;99274.25;6159797;23;20044;-68
2023/10/30 08:19:26;;;;;;;0.10;0.10;;;;;;;-0.89;100.00;99259.31;6172465;23;20021;-68
2023/10/30 08:21:54;;;;;;;0.10;0.10;;;;;;;-0.81;100.00;99264.44;6185758;23;20209;-68
2023/10/30 08:24:20;;;;;;;0.00;0.00;;;;;;;-0.80;100.00;99266.09;6144301;23;20017;-68
2023/10/30 08:26:48;;;;;;;0.32;0.10;;;;;;;-0.84;100.00;99251.44;6122697;23;20028;-68
2023/10/30 08:29:14;;;;;;;0.10;0.10;;;;;;;-0.86;100.00;99242.78;6171704;23;20028;-67
2023/10/30 08:31:40;;;;;;;0.10;0.10;;;;;;;-0.90;100.00;99237.00;6122458;23;20024;-68
2023/10/30 08:34:06;;;;;;;0.10;0.10;;;;;;;-0.89;100.00;99230.59;6145745;23;20052;-74
2023/10/30 08:36:33;;;;;;;0.10;0.10;;;;;;;-0.92;100.00;99231.03;6155783;23;20044;-68
2023/10/30 08:38:59;;;;;;;0.10;0.10;;;;;;;-0.88;100.00;99218.81;6157600;23;21134;-68
2023/10/30 08:41:26;;;;;;;0.10;0.10;;;;;;;-0.77;100.00;99209.31;6169322;23;20021;-68
2023/10/30 08:43:53;;;;;;;0.10;0.10;;;;;;;-0.75;100.00;99196.47;6145796;23;20025;-68
2023/10/30 08:46:19;;;;;;;;;;;;;;;-0.74;100.00;99200.81;6147248;23;20020;-73
2023/10/30 08:48:46;;;;;;;0.10;0.10;;;;;;;-0.77;100.00;99185.13;6133701;23;19947;-73
2023/10/30 08:51:13;;;;;;;0.03;0.03;;;;;;;-0.73;100.00;99193.56;6173106;23;20021;-68
2023/10/30 08:53:39;;;;;;;0.10;0.10;;;;;;;-0.68;100.00;99179.50;6175082;23;20021;-73
2023/10/30 08:56:06;;;;;;;0.00;0.00;;;;;;;-0.67;100.00;99181.97;6157335;23;20025;-73
2023/10/30 08:58:32;;;;;;;0.00;0.00;;;;;;;-0.66;100.00;99185.47;6123964;23;20025;-73
2023/10/30 09:01:00;;;;;;;0.10;0.10;;;;;;;-0.60;100.00;99179.25;6174910;23;20025;-68
2023/10/30 09:03:26;;;;;;;0.10;0.10;;;;;;;-0.56;100.00;99180.44;6122301;23;20398;-73
2023/10/30 09:05:53;;;;;;;0.10;0.10;;;;;;;-0.43;100.00;99176.84;6167688;23;20353;-68
2023/10/30 09:08:19;;;;;;;0.10;0.10;;;;;;;-0.47;100.00;99162.22;6142590;23;20108;-68
2023/10/30 09:10:45;;;;;;;0.10;0.10;;;;;;;-0.48;100.00;99155.19;6169894;23;20021;-74
2023/10/30 09:13:11;;;;;;;0.10;0.10;;;;;;;-0.52;100.00;99138.69;6178327;23;20092;-73
2023/10/30 09:15:38;;;;;;;0.10;0.10;;;;;;;-0.56;100.00;99113.31;6173878;23;20021;-73
2023/10/30 09:18:06;;;;;;;0.10;0.10;;;;;;;-0.69;100.00;99098.13;6165363;23;20469;-72
2023/10/30 09:20:33;;;;;;;0.10;0.10;;;;;;;-0.60;100.00;99101.38;6140951;23;20027;-73
2023/10/30 09:22:59;;;;;;;0.10;0.10;;;;;;;-0.56;100.00;99110.63;6118798;23;20087;-73
2023/10/30 09:25:25;;;;;;;0.10;0.10;;;;;;;-0.57;100.00;99109.78;6145323;23;20021;-72
2023/10/30 09:27:52;;;;;;;0.10;0.10;;;;;;;-0.55;100.00;99087.25;6180539;23;20017;-68
2023/10/30 09:30:18;;;;;;;0.10;0.10;;;;;;;-0.46;100.00;99091.31;6169131;23;20025;-68
2023/10/30 09:32:45;;;;;;;0.10;0.10;;;;;;;-0.44;100.00;99092.75;6177875;23;20032;-70
2023/10/30 09:35:12;;;;;;;0.10;0.10;;;;;;;-0.44;100.00;99083.88;6145819;23;20365;-71
2023/10/30 09:37:39;;;;;;;0.10;0.10;;;;;;;-0.43;100.00;99064.84;6182293;23;20023;-70
2023/10/30 09:40:07;;;;;;;0.10;0.10;;;;;;;-0.43;100.00;99058.66;6123326;23;20029;-71
2023/10/30 09:42:36;;;;;;;0.10;0.10;;;;;;;-0.49;100.00;99013.88;6139988;23;20048;-71
2023/10/30 09:45:06;;;;;;;0.10;0.10;;;;;;;-0.39;100.00;99033.00;6136389;23;20539;-71
2023/10/30 09:47:32;;;;;;;0.10;0.10;;;;;;;-0.34;100.00;99021.56;6135857;23;20024;-71
2023/10/30 09:49:59;;;;;;;0.03;0.03;;;;;;;-0.30;100.00;99018.22;6166132;23;20036;-71
2023/10/30 09:52:29;;;;;;;0.10;0.10;;;;;;;-0.29;100.00;98994.88;6137989;23;20017;-71
2023/10/30 09:54:56;;;;;;;0.00;0.00;;;;;;;-0.33;100.00;98967.63;6165109;23;20025;-68
2023/10/30 09:57:24;;;;;;;0.10;0.10;;;;;;;-0.33;100.00;98969.47;6179357;23;20017;-68
2023/10/30 09:59:54;;;;;;;0.10;0.10;;;;;;;-0.35;100.00;98956.28;6141963;23;20025;-68
2023/10/30 10:02:21;;;;;;;0.10;0.10;;;;;;;-0.30;100.00;98948.38;6170590;23;20020;-68
2023/10/30 10:04:47;;;;;;;0.10;0.10;;;;;;;-0.30;100.00;98912.63;6118485;23;20701;-68
2023/10/30 10:07:15;;;;;;;0.10;0.10;;;;;;;-0.30;100.00;98888.47;6142350;23;20452;-72
2023/10/30 10:12:36;;;;;;;0.10;0.10;;;;;;;-0.26;100.00;98900.38;5028551;28;20418;-71
2023/10/30 10:15:06;;;;;;;0.10;0.10;;;;;;;-0.23;100.00;98894.56;4989101;28;20046;-73
2023/10/30 10:17:40;;;;;;;0.00;0.00;;;;;;;-0.19;100.00;98889.56;5015124;28;20052;-72
2023/10/30 10:20:08;;;;;;;0.00;0.00;;;;;;;-0.23;100.00;98867.69;5006072;28;20042;-73
2023/10/30 10:22:35;;;;;;;0.10;0.10;;;;;;;-0.25;100.00;98882.38;5020166;28;20144;-72
2023/10/30 10:25:02;;;;;;;0.00;0.00;;;;;;;-0.30;100.00;98883.09;5020684;28;20140;-73
2023/10/30 10:27:31;;;;;;;0.10;0.10;;;;;;;-0.27;100.00;98895.22;5025514;28;20047;-73
2023/10/30 10:29:58;;;;;;;0.10;0.10;;;;;;;-0.20;100.00;98893.28;5021930;28;20133;-73
2023/10/30 10:32:26;;;;;;;0.10;0.10;;;;;;;-0.16;100.00;98905.22;5026586;28;20056;-73
2023/10/30 10:34:54;;;;;;;0.10;0.10;;;;;;;-0.17;100.00;98917.81;5020258;28;20046;-73
2023/10/30 10:37:21;;;;;;;0.10;0.10;;;;;;;-0.07;100.00;98936.13;5003135;28;20132;-73
2023/10/30 10:39:48;;;;;;;0.10;0.10;;;;;;;-0.03;100.00;98912.28;5001736;28;20483;-73
2023/10/30 10:42:18;;;;;;;0.10;0.10;;;;;;;0.02;100.00;98904.38;5016816;28;20049;-69
2023/10/30 10:44:45;;;;;;;0.10;0.10;;;;;;;0.08;100.00;98897.25;5007743;28;20587;-74
2023/10/30 10:47:13;;;;;;;0.00;0.00;;;;;;;0.13;100.00;98921.59;5021727;28;20080;-72
2023/10/30 10:49:39;;;;;;;;;;;;;;;0.15;100.00;98887.25;5020961;28;20172;-73
2023/10/30 10:52:09;;;;;;;0.00;0.00;;;;;;;0.17;100.00;98881.63;5024043;27;20040;-73
2023/10/30 10:54:43;;;;;;;0.10;0.10;;;;;;;0.23;100.00;98869.97;5023867;28;20072;-69
2023/10/30 10:57:15;;;;;;;0.00;0.00;;;;;;;0.27;100.00;98857.69;5022503;28;20400;-73
2023/10/30 10:59:45;;;;;;;0.00;0.00;;;;;;;0.31;100.00;98852.69;5023589;28;20038;-74
2023/10/30 11:02:21;;;;;;;0.00;0.00;;;;;;;0.35;100.00;98857.38;5019951;28;20061;-73
2023/10/30 11:04:50;;;;;;;0.10;0.10;;;;;;;0.38;100.00;98850.69;5024941;28;20404;-69
2023/10/30 11:07:25;;;;;;;0.10;0.10;;;;;;;0.42;100.00;98858.06;5017826;28;20050;-69
2023/10/30 11:09:57;;;;;;;0.10;0.10;;;;;;;0.45;100.00;98848.72;5021441;28;20042;-68
2023/10/30 11:12:49;;;;;;;0.10;0.10;;;;;;;0.47;100.00;98810.81;5015007;28;20068;-68
2023/10/30 11:15:25;;;;;;;0.10;0.10;;;;;;;0.44;100.00;98797.84;5000787;28;20042;-69
2023/10/30 11:18:15;;;;;;;0.10;0.10;;;;;;;0.49;100.00;98781.84;5004768;28;20049;-68
2023/10/30 11:20:42;;;;;;;0.10;0.10;;;;;;;0.47;100.00;98811.66;4991929;28;20050;-68
2023/10/30 11:23:12;;;;;;;0.10;0.10;;;;;;;0.45;100.00;98818.31;4963835;28;20038;-69
2023/10/30 11:25:51;;;;;;;0.00;0.00;;;;;;;0.50;100.00;98791.53;4999857;28;20243;-72
2023/10/30 11:28:17;;;;;;;0.10;0.10;;;;;;;0.50;100.00;98799.63;4975614;28;20530;-73
2023/10/30 11:30:44;;;;;;;0.10;0.10;;;;;;;0.57;100.00;98792.25;4980637;28;20083;-73
2023/10/30 11:33:20;;;;;;;0.10;0.10;;;;;;;0.57;100.00;98770.72;4988373;28;20364;-73
2023/10/30 11:35:51;;;;;;;0.00;0.00;;;;;;;0.63;100.00;98771.66;4993706;28;20141;-69
2023/10/30 11:38:18;;;;;;;0.10;0.10;;;;;;;0.68;100.00;98759.13;4997084;28;20366;-69
2023/10/30 11:41:00;;;;;;;0.03;0.03;;;;;;;0.61;100.00;98763.81;4997655;28;20079;-73